createdAt,value
2018-09-01T00:01:44.314Z,2.60
2018-09-01T00:04:12.625Z,2.40
2018-09-01T00:06:40.933Z,2.40
2018-09-01T00:09:09.291Z,2.03
2018-09-01T00:11:37.566Z,2.53
2018-09-01T00:14:06.058Z,2.30
2018-09-01T00:16:34.436Z,2.57
2018-09-01T00:19:02.757Z,2.43
2018-09-01T00:21:31.022Z,2.37
2018-09-01T00:24:03.563Z,2.37
2018-09-01T00:26:31.811Z,2.60
2018-09-01T00:29:00.063Z,2.33
2018-09-01T00:31:28.320Z,2.30
2018-09-01T00:33:56.643Z,2.30
2018-09-01T00:36:24.912Z,2.37
2018-09-01T00:38:58.519Z,2.70
2018-09-01T00:41:26.789Z,2.20
2018-09-01T00:43:55.095Z,2.50
2018-09-01T00:46:23.373Z,2.60
2018-09-01T00:48:51.670Z,2.40
2018-09-01T00:51:19.970Z,2.83
2018-09-01T00:53:48.309Z,2.30
2018-09-01T00:56:16.581Z,2.33
2018-09-01T00:58:44.885Z,2.50
2018-09-01T01:01:13.144Z,2.80
2018-09-01T01:03:41.422Z,2.53
2018-09-01T01:06:09.666Z,2.57
2018-09-01T01:08:38.088Z,2.17
2018-09-01T01:11:06.432Z,2.97
2018-09-01T01:13:34.836Z,2.50
2018-09-01T01:16:03.145Z,2.40
2018-09-01T01:18:31.419Z,2.60
2018-09-01T01:20:59.731Z,2.23
2018-09-01T01:23:28.058Z,2.67
2018-09-01T01:25:56.333Z,2.67
2018-09-01T01:28:24.656Z,2.83
2018-09-01T01:30:52.938Z,2.43
2018-09-01T01:33:21.222Z,2.60
2018-09-01T01:35:49.498Z,2.47
2018-09-01T01:38:17.918Z,2.50
2018-09-01T01:40:46.181Z,2.57
2018-09-01T01:43:14.458Z,2.83
2018-09-01T01:45:42.770Z,2.83
2018-09-01T01:48:11.055Z,2.30
2018-09-01T01:50:39.411Z,2.63
2018-09-01T01:53:07.703Z,2.50
2018-09-01T01:55:35.969Z,2.70
2018-09-01T01:58:04.298Z,2.70
2018-09-01T02:00:32.596Z,2.50
2018-09-01T02:03:00.911Z,2.63
2018-09-01T02:05:32.067Z,2.63
2018-09-01T02:08:00.334Z,3.47
2018-09-01T02:10:28.621Z,2.50
2018-09-01T02:12:57.081Z,2.50
2018-09-01T02:15:25.382Z,2.90
2018-09-01T02:17:53.696Z,2.60
2018-09-01T02:20:21.962Z,2.80
2018-09-01T02:22:50.234Z,2.90
2018-09-01T02:25:18.530Z,2.70
2018-09-01T02:27:46.810Z,3.17
2018-09-01T02:30:15.278Z,3.00
2018-09-01T02:32:43.633Z,2.87
2018-09-01T02:35:11.926Z,2.87
2018-09-01T02:37:40.227Z,2.90
2018-09-01T02:40:08.543Z,2.80
2018-09-01T02:42:36.828Z,2.50
2018-09-01T02:45:06.583Z,2.77
2018-09-01T02:47:34.881Z,2.67
2018-09-01T02:50:03.201Z,2.57
2018-09-01T02:52:31.496Z,2.80
2018-09-01T02:54:59.766Z,2.87
2018-09-01T02:57:28.127Z,2.77
2018-09-01T02:59:56.599Z,3.17
2018-09-01T03:02:30.317Z,2.70
2018-09-01T03:04:59.647Z,3.30
2018-09-01T03:07:28.109Z,3.03
2018-09-01T03:09:56.425Z,2.90
2018-09-01T03:12:24.761Z,3.03
2018-09-01T03:14:53.119Z,2.80
2018-09-01T03:17:21.427Z,3.03
2018-09-01T03:19:49.739Z,3.27
2018-09-01T03:22:18.068Z,2.83
2018-09-01T03:24:46.363Z,2.80
2018-09-01T03:27:14.634Z,2.60
2018-09-01T03:29:42.895Z,2.80
2018-09-01T03:32:11.283Z,2.80
2018-09-01T03:34:39.617Z,2.73
2018-09-01T03:37:07.894Z,2.93
2018-09-01T03:39:36.162Z,2.63
2018-09-01T03:42:04.414Z,3.20
2018-09-01T03:44:32.669Z,2.57
2018-09-01T03:47:01.260Z,3.10
2018-09-01T03:49:29.554Z,2.93
2018-09-01T03:51:57.854Z,3.30
2018-09-01T03:54:26.136Z,2.73
2018-09-01T03:57:01.430Z,3.10
2018-09-01T03:59:29.727Z,3.13
2018-09-01T04:01:58.010Z,3.07
2018-09-01T04:04:26.424Z,2.90
2018-09-01T04:06:54.755Z,3.10
2018-09-01T04:09:23.015Z,2.97
2018-09-01T04:11:51.334Z,2.93
2018-09-01T04:14:19.605Z,3.10
2018-09-01T04:16:47.918Z,3.20
2018-09-01T04:19:18.993Z,3.00
2018-09-01T04:21:49.273Z,3.47
2018-09-01T04:24:17.648Z,3.33
2018-09-01T04:26:46.709Z,3.13
2018-09-01T04:29:15.702Z,3.10
2018-09-01T04:31:44.162Z,3.10
2018-09-01T04:34:12.458Z,3.23
2018-09-01T04:36:40.868Z,3.27
2018-09-01T04:39:10.859Z,3.07
2018-09-01T04:41:39.350Z,2.90
2018-09-01T04:44:07.667Z,3.00
2018-09-01T04:46:40.943Z,3.20
2018-09-01T04:49:17.696Z,2.83
2018-09-01T04:51:53.071Z,3.17
2018-09-01T04:54:22.090Z,3.03
2018-09-01T04:56:50.437Z,2.77
2018-09-01T04:59:18.805Z,2.80
2018-09-01T05:01:47.203Z,3.27
2018-09-01T05:04:15.491Z,3.20
2018-09-01T05:06:43.849Z,3.10
2018-09-01T05:09:12.200Z,3.50
2018-09-01T05:11:40.498Z,3.60
2018-09-01T05:14:08.794Z,3.23
2018-09-01T05:16:37.477Z,4.17
2018-09-01T05:19:05.789Z,3.43
2018-09-01T05:21:34.108Z,3.13
2018-09-01T05:24:02.403Z,3.23
2018-09-01T05:26:30.763Z,2.70
2018-09-01T05:28:59.136Z,3.00
2018-09-01T05:31:27.426Z,3.10
2018-09-01T05:33:55.791Z,3.20
2018-09-01T05:36:24.132Z,3.20
2018-09-01T05:38:52.370Z,3.33
2018-09-01T05:41:20.651Z,3.30
2018-09-01T05:43:49.984Z,3.07
2018-09-01T05:46:18.300Z,3.30
2018-09-01T05:48:46.558Z,3.43
2018-09-01T05:51:14.849Z,3.10
2018-09-01T05:53:43.113Z,2.93
2018-09-01T05:56:11.402Z,3.17
2018-09-01T05:58:39.665Z,2.67
2018-09-01T06:01:07.990Z,3.33
2018-09-01T06:03:36.282Z,3.07
2018-09-01T06:06:04.595Z,2.90
2018-09-01T06:08:32.909Z,2.70
2018-09-01T06:11:01.314Z,2.97
2018-09-01T06:13:29.597Z,2.77
2018-09-01T06:15:58.081Z,2.70
2018-09-01T06:18:26.462Z,2.53
2018-09-01T06:20:54.821Z,2.53
2018-09-01T06:23:23.098Z,2.83
2018-09-01T06:25:51.589Z,3.00
2018-09-01T06:28:24.294Z,2.47
2018-09-01T06:30:53.799Z,2.73
2018-09-01T06:33:22.191Z,2.60
2018-09-01T06:35:50.449Z,2.50
2018-09-01T06:38:18.729Z,2.50
2018-09-01T06:40:47.070Z,2.43
2018-09-01T06:43:15.374Z,2.83
2018-09-01T06:45:43.684Z,2.03
2018-09-01T06:48:12.080Z,2.50
2018-09-01T06:50:40.342Z,2.40
2018-09-01T06:53:08.610Z,2.57
2018-09-01T06:55:36.878Z,2.10
2018-09-01T06:58:05.538Z,2.40
2018-09-01T07:00:33.830Z,2.23
2018-09-01T07:03:02.214Z,2.20
2018-09-01T07:05:30.493Z,2.50
2018-09-01T07:07:58.757Z,2.10
2018-09-01T07:10:27.022Z,2.20
2018-09-01T07:12:55.394Z,2.17
2018-09-01T07:15:23.701Z,2.33
2018-09-01T07:17:52.038Z,2.10
2018-09-01T07:20:20.330Z,1.87
2018-09-01T07:22:48.633Z,2.30
2018-09-01T07:25:16.989Z,2.27
2018-09-01T07:27:45.290Z,2.20
2018-09-01T07:30:13.657Z,1.93
2018-09-01T07:32:41.858Z,2.30
2018-09-01T07:35:10.128Z,2.20
2018-09-01T07:37:38.398Z,2.20
2018-09-01T07:40:06.702Z,2.00
2018-09-01T07:42:34.981Z,2.30
2018-09-01T07:45:04.266Z,2.43
2018-09-01T07:47:32.546Z,2.73
2018-09-01T07:50:01.194Z,3.33
2018-09-01T07:52:29.551Z,2.33
2018-09-01T07:54:57.852Z,2.10
2018-09-01T07:57:26.368Z,2.30
2018-09-01T07:59:54.833Z,2.07
2018-09-01T08:02:23.093Z,1.97
2018-09-01T08:04:51.386Z,2.40
2018-09-01T08:07:19.731Z,2.60
2018-09-01T08:09:47.965Z,2.40
2018-09-01T08:12:16.235Z,2.50
2018-09-01T08:14:44.512Z,2.40
2018-09-01T08:17:12.804Z,2.10
2018-09-01T08:19:41.181Z,2.13
2018-09-01T08:22:09.478Z,2.10
2018-09-01T08:24:37.730Z,2.03
2018-09-01T08:27:06.002Z,2.30
2018-09-01T08:29:34.283Z,2.30
2018-09-01T08:32:02.627Z,1.83
2018-09-01T08:34:30.906Z,1.87
2018-09-01T08:36:59.214Z,2.70
2018-09-01T08:39:27.488Z,2.23
2018-09-01T08:41:55.948Z,2.30
2018-09-01T08:44:24.342Z,2.20
2018-09-01T08:46:52.623Z,2.30
2018-09-01T08:49:20.922Z,2.37
2018-09-01T08:51:49.200Z,2.40
2018-09-01T08:54:17.489Z,2.03
2018-09-01T08:56:45.748Z,2.00
2018-09-01T08:59:14.045Z,2.30
2018-09-01T09:01:42.344Z,1.80
2018-09-01T09:04:10.648Z,2.00
2018-09-01T09:06:39.025Z,2.33
2018-09-01T09:09:07.628Z,2.50
2018-09-01T09:11:36.267Z,2.20
2018-09-01T09:14:04.551Z,2.10
2018-09-01T09:16:32.956Z,2.00
2018-09-01T09:19:01.282Z,2.03
2018-09-01T09:21:29.594Z,2.40
2018-09-01T09:23:57.870Z,1.97
2018-09-01T09:26:26.396Z,1.90
2018-09-01T09:28:54.784Z,2.57
2018-09-01T09:31:23.069Z,2.77
2018-09-01T09:33:51.408Z,2.40
2018-09-01T09:36:19.663Z,2.10
2018-09-01T09:38:48.125Z,2.13
2018-09-01T09:41:16.402Z,2.43
2018-09-01T09:43:44.746Z,1.90
2018-09-01T09:46:13.307Z,2.20
2018-09-01T09:48:41.613Z,2.03
2018-09-01T09:51:09.962Z,2.17
2018-09-01T09:53:38.240Z,2.03
2018-09-01T09:56:06.533Z,1.97
2018-09-01T09:58:34.834Z,2.07
2018-09-01T10:01:06.187Z,1.80
2018-09-01T10:03:36.198Z,2.13
2018-09-01T10:06:04.475Z,2.00
2018-09-01T10:08:32.838Z,2.00
2018-09-01T10:11:01.187Z,2.00
2018-09-01T10:13:29.486Z,2.00
2018-09-01T10:15:57.828Z,2.00
2018-09-01T10:18:26.005Z,1.80
2018-09-01T10:20:54.427Z,1.70
2018-09-01T10:23:22.809Z,1.90
2018-09-01T10:25:51.585Z,2.13
2018-09-01T10:28:19.873Z,2.27
2018-09-01T10:30:48.150Z,1.90
2018-09-01T10:33:16.520Z,1.60
2018-09-01T10:35:44.786Z,2.03
2018-09-01T10:38:13.046Z,1.90
2018-09-01T10:40:41.325Z,2.20
2018-09-01T10:43:09.593Z,1.83
2018-09-01T10:45:37.889Z,1.90
2018-09-01T10:48:06.260Z,2.10
2018-09-01T10:50:34.559Z,2.27
2018-09-01T10:53:02.813Z,2.13
2018-09-01T10:55:31.090Z,2.10
2018-09-01T10:57:59.391Z,2.30
2018-09-01T11:00:27.659Z,1.83
2018-09-01T11:02:55.922Z,2.30
2018-09-01T11:05:24.189Z,2.33
2018-09-01T11:07:52.442Z,2.00
2018-09-01T11:10:20.761Z,2.97
2018-09-01T11:12:49.018Z,2.10
2018-09-01T11:15:17.385Z,2.10
2018-09-01T11:17:45.624Z,2.33
2018-09-01T11:20:14.050Z,1.93
2018-09-01T11:22:42.287Z,2.10
2018-09-01T11:25:10.607Z,2.00
2018-09-01T11:27:39.017Z,2.43
2018-09-01T11:30:09.104Z,2.17
2018-09-01T11:32:37.554Z,1.80
2018-09-01T11:35:06.166Z,2.00
2018-09-01T11:37:34.595Z,1.90
2018-09-01T11:40:02.889Z,1.83
2018-09-01T11:42:31.314Z,2.20
2018-09-01T11:44:59.510Z,1.87
2018-09-01T11:47:27.792Z,2.40
2018-09-01T11:49:56.187Z,1.80
2018-09-01T11:52:24.566Z,1.50
2018-09-01T11:54:52.910Z,1.77
2018-09-01T11:57:21.189Z,2.17
2018-09-01T11:59:49.625Z,2.17
2018-09-01T12:02:17.950Z,1.73
2018-09-01T12:04:46.180Z,1.87
2018-09-01T12:07:14.578Z,1.90
2018-09-01T12:09:42.927Z,2.10
2018-09-01T12:12:11.221Z,1.70
2018-09-01T12:14:39.512Z,1.73
2018-09-01T12:17:07.767Z,2.00
2018-09-01T12:19:36.049Z,1.60
2018-09-01T12:22:04.339Z,2.27
2018-09-01T12:24:32.607Z,1.63
2018-09-01T12:27:00.906Z,2.10
2018-09-01T12:29:29.170Z,1.80
2018-09-01T12:31:57.434Z,1.80
2018-09-01T12:34:25.698Z,2.00
2018-09-01T12:36:53.981Z,1.70
2018-09-01T12:39:22.290Z,1.83
2018-09-01T12:41:50.632Z,1.90
2018-09-01T12:44:18.920Z,1.70
2018-09-01T12:46:47.197Z,1.87
2018-09-01T12:49:15.464Z,1.87
2018-09-01T12:51:43.756Z,1.63
2018-09-01T12:54:12.125Z,2.00
2018-09-01T12:56:40.399Z,1.63
2018-09-01T12:59:08.709Z,1.80
2018-09-01T13:01:37.161Z,1.73
2018-09-01T13:04:05.441Z,1.83
2018-09-01T13:06:33.745Z,1.70
2018-09-01T13:09:02.090Z,1.47
2018-09-01T13:11:30.363Z,2.00
2018-09-01T13:13:58.636Z,1.60
2018-09-01T13:16:26.946Z,1.70
2018-09-01T13:18:55.237Z,1.87
2018-09-01T13:21:23.567Z,1.53
2018-09-01T13:23:51.839Z,1.87
2018-09-01T13:26:20.135Z,1.80
2018-09-01T13:28:48.474Z,1.80
2018-09-01T13:31:16.846Z,1.70
2018-09-01T13:33:45.136Z,2.03
2018-09-01T13:36:13.463Z,2.10
2018-09-01T13:38:41.732Z,1.80
2018-09-01T13:41:10.106Z,1.70
2018-09-01T13:43:38.381Z,1.77
2018-09-01T13:46:06.765Z,1.80
2018-09-01T13:48:34.973Z,1.80
2018-09-01T13:51:03.274Z,1.90
2018-09-01T13:53:31.532Z,1.83
2018-09-01T13:55:59.842Z,1.77
2018-09-01T13:58:28.110Z,1.73
2018-09-01T14:00:56.406Z,1.87
2018-09-01T14:03:24.743Z,1.80
2018-09-01T14:05:53.127Z,1.87
2018-09-01T14:08:21.396Z,1.60
2018-09-01T14:10:49.700Z,1.70
2018-09-01T14:13:18.024Z,1.93
2018-09-01T14:15:46.428Z,1.70
2018-09-01T14:18:14.788Z,1.60
2018-09-01T14:20:43.220Z,2.10
2018-09-01T14:23:11.506Z,1.87
2018-09-01T14:25:39.785Z,1.73
2018-09-01T14:28:08.070Z,1.87
2018-09-01T14:30:36.350Z,1.70
2018-09-01T14:33:04.746Z,1.80
2018-09-01T14:35:33.034Z,1.83
2018-09-01T14:38:01.414Z,2.40
2018-09-01T14:40:29.763Z,1.80
2018-09-01T14:42:58.082Z,1.90
2018-09-01T14:45:26.497Z,1.97
2018-09-01T14:47:54.792Z,1.87
2018-09-01T14:50:23.140Z,1.63
2018-09-01T14:52:51.509Z,2.17
2018-09-01T14:55:19.770Z,1.80
2018-09-01T14:57:48.050Z,2.10
2018-09-01T15:00:16.305Z,1.83
2018-09-01T15:02:44.734Z,2.00
2018-09-01T15:05:13.176Z,2.20
2018-09-01T15:07:41.491Z,2.23
2018-09-01T15:10:09.849Z,1.97
2018-09-01T15:12:38.157Z,1.70
2018-09-01T15:15:06.437Z,1.83
2018-09-01T15:17:34.778Z,2.03
2018-09-01T15:20:03.274Z,1.90
2018-09-01T15:22:31.757Z,1.67
2018-09-01T15:25:00.214Z,2.03
2018-09-01T15:27:28.517Z,2.10
2018-09-01T15:29:56.771Z,1.97
2018-09-01T15:32:25.128Z,2.23
2018-09-01T15:34:53.427Z,1.80
2018-09-01T15:37:21.781Z,2.10
2018-09-01T15:39:50.290Z,2.00
2018-09-01T15:42:18.578Z,2.20
2018-09-01T15:44:46.889Z,2.13
2018-09-01T15:47:15.147Z,1.73
2018-09-01T15:49:43.399Z,2.27
2018-09-01T15:52:11.673Z,2.23
2018-09-01T15:54:40.035Z,1.93
2018-09-01T15:57:08.319Z,1.70
2018-09-01T15:59:36.609Z,1.80
2018-09-01T16:02:04.959Z,1.90
2018-09-01T16:04:33.230Z,1.93
2018-09-01T16:07:01.519Z,2.40
2018-09-01T16:09:29.824Z,2.30
2018-09-01T16:11:58.099Z,2.00
2018-09-01T16:14:26.374Z,2.50
2018-09-01T16:16:54.688Z,1.97
2018-09-01T16:19:22.992Z,2.20
2018-09-01T16:21:51.267Z,2.00
2018-09-01T16:24:19.542Z,2.40
2018-09-01T16:26:47.821Z,2.10
2018-09-01T16:29:16.098Z,2.47
2018-09-01T16:31:44.393Z,1.83
2018-09-01T16:34:12.666Z,2.37
2018-09-01T16:36:40.921Z,1.90
2018-09-01T16:39:09.253Z,2.20
2018-09-01T16:41:37.523Z,1.77
2018-09-01T16:44:05.831Z,2.03
2018-09-01T16:46:34.274Z,2.03
2018-09-01T16:49:02.568Z,2.03
2018-09-01T16:51:30.819Z,2.00
2018-09-01T16:53:59.082Z,2.00
2018-09-01T16:56:27.353Z,1.73
2018-09-01T16:58:55.639Z,1.80
2018-09-01T17:01:23.966Z,2.10
2018-09-01T17:03:52.256Z,1.93
2018-09-01T17:06:20.514Z,2.00
2018-09-01T17:08:48.891Z,2.00
2018-09-01T17:11:17.134Z,1.90
2018-09-01T17:13:45.678Z,2.13
2018-09-01T17:16:14.004Z,2.30
2018-09-01T17:18:42.428Z,2.00
2018-09-01T17:21:10.788Z,1.83
2018-09-01T17:23:39.103Z,1.90
2018-09-01T17:26:07.375Z,1.97
2018-09-01T17:28:35.670Z,1.93
2018-09-01T17:31:04.104Z,2.90
2018-09-01T17:33:32.789Z,2.83
2018-09-01T17:36:01.108Z,2.33
2018-09-01T17:38:29.406Z,2.20
2018-09-01T17:40:57.697Z,2.37
2018-09-01T17:43:26.018Z,2.07
2018-09-01T17:45:54.319Z,2.00
2018-09-01T17:48:22.613Z,2.43
2018-09-01T17:50:51.041Z,2.20
2018-09-01T17:53:19.330Z,2.10
2018-09-01T17:55:47.611Z,2.10
2018-09-01T17:58:15.915Z,2.37
2018-09-01T18:00:44.255Z,2.20
2018-09-01T18:03:12.575Z,2.43
2018-09-01T18:05:40.873Z,2.03
2018-09-01T18:08:09.170Z,2.37
2018-09-01T18:10:37.616Z,2.13
2018-09-01T18:13:06.056Z,2.43
2018-09-01T18:15:34.530Z,2.10
2018-09-01T18:18:02.797Z,2.30
2018-09-01T18:20:31.077Z,2.17
2018-09-01T18:22:59.495Z,2.17
2018-09-01T18:25:27.803Z,2.50
2018-09-01T18:27:56.225Z,2.30
2018-09-01T18:30:24.503Z,1.97
2018-09-01T18:32:52.749Z,2.40
2018-09-01T18:35:21.099Z,2.20
2018-09-01T18:37:49.326Z,2.20
2018-09-01T18:40:17.651Z,2.47
2018-09-01T18:42:45.998Z,2.40
2018-09-01T18:45:14.289Z,2.40
2018-09-01T18:47:42.556Z,2.50
2018-09-01T18:50:10.849Z,2.20
2018-09-01T18:52:39.124Z,2.50
2018-09-01T18:55:07.421Z,2.80
2018-09-01T18:57:35.702Z,2.67
2018-09-01T19:00:04.398Z,2.40
2018-09-01T19:02:32.702Z,2.40
2018-09-01T19:05:00.999Z,2.80
2018-09-01T19:07:29.278Z,2.40
2018-09-01T19:09:57.566Z,2.60
2018-09-01T19:12:25.829Z,2.47
2018-09-01T19:14:54.121Z,2.23
2018-09-01T19:17:22.492Z,2.47
2018-09-01T19:19:50.774Z,2.80
2018-09-01T19:22:19.058Z,2.63
2018-09-01T19:24:47.368Z,2.60
2018-09-01T19:27:16.242Z,2.70
2018-09-01T19:29:44.521Z,2.40
2018-09-01T19:32:12.835Z,2.60
2018-09-01T19:34:41.184Z,2.70
2018-09-01T19:37:09.481Z,2.70
2018-09-01T19:39:37.778Z,2.57
2018-09-01T19:42:06.202Z,2.70
2018-09-01T19:44:34.496Z,2.80
2018-09-01T19:47:02.817Z,2.60
2018-09-01T19:49:31.116Z,2.70
2018-09-01T19:51:59.406Z,2.83
2018-09-01T19:54:27.697Z,2.73
2018-09-01T19:56:55.978Z,2.70
2018-09-01T19:59:24.257Z,2.70
2018-09-01T20:01:52.531Z,2.70
2018-09-01T20:04:20.826Z,2.80
2018-09-01T20:06:49.373Z,2.53
2018-09-01T20:09:17.765Z,2.83
2018-09-01T20:11:46.034Z,2.83
2018-09-01T20:14:14.543Z,2.70
2018-09-01T20:16:42.806Z,2.60
2018-09-01T20:19:11.082Z,3.50
2018-09-01T20:21:39.477Z,2.70
2018-09-01T20:24:07.930Z,2.43
2018-09-01T20:26:36.309Z,2.50
2018-09-01T20:29:04.623Z,3.10
2018-09-01T20:31:32.940Z,2.97
2018-09-01T20:34:01.200Z,2.70
2018-09-01T20:36:29.478Z,2.80
2018-09-01T20:38:57.773Z,3.10
2018-09-01T20:41:26.097Z,3.07
2018-09-01T20:43:54.368Z,2.63
2018-09-01T20:46:22.666Z,2.73
2018-09-01T20:48:50.942Z,2.80
2018-09-01T20:51:19.250Z,2.80
2018-09-01T20:53:47.514Z,2.70
2018-09-01T20:56:16.021Z,2.70
2018-09-01T20:58:44.302Z,3.10
2018-09-01T21:01:12.599Z,2.70
2018-09-01T21:03:40.860Z,2.53
2018-09-01T21:06:09.174Z,3.10
2018-09-01T21:08:37.501Z,2.90
2018-09-01T21:11:05.816Z,2.93
2018-09-01T21:13:34.138Z,2.90
2018-09-01T21:16:02.433Z,2.80
2018-09-01T21:18:30.707Z,3.10
2018-09-01T21:20:58.982Z,3.10
2018-09-01T21:23:27.375Z,3.47
2018-09-01T21:25:55.659Z,2.90
2018-09-01T21:28:23.969Z,3.07
2018-09-01T21:30:52.241Z,2.77
2018-09-01T21:33:20.514Z,2.70
2018-09-01T21:35:48.796Z,3.30
2018-09-01T21:38:17.069Z,3.23
2018-09-01T21:40:45.453Z,2.93
2018-09-01T21:43:13.718Z,2.70
2018-09-01T21:45:42.048Z,3.00
2018-09-01T21:48:10.350Z,3.00
2018-09-01T21:50:38.616Z,3.00
2018-09-01T21:53:06.936Z,3.20
2018-09-01T21:55:35.241Z,3.00
2018-09-01T21:58:03.597Z,2.87
2018-09-01T22:00:31.904Z,3.47
2018-09-01T22:03:00.166Z,3.33
2018-09-01T22:05:28.476Z,3.10
2018-09-01T22:07:56.809Z,2.97
2018-09-01T22:10:25.108Z,3.30
2018-09-01T22:12:53.466Z,3.00
2018-09-01T22:15:21.848Z,3.30
2018-09-01T22:17:50.314Z,3.00
2018-09-01T22:20:18.604Z,2.83
2018-09-01T22:22:47.045Z,3.30
2018-09-01T22:25:15.408Z,3.07
2018-09-01T22:27:43.809Z,3.20
2018-09-01T22:30:12.091Z,3.50
2018-09-01T22:32:40.435Z,3.27
2018-09-01T22:35:08.785Z,3.50
2018-09-01T22:37:37.082Z,3.10
2018-09-01T22:40:05.494Z,3.10
2018-09-01T22:42:33.985Z,3.60
2018-09-01T22:45:02.258Z,3.10
2018-09-01T22:47:32.045Z,2.70
2018-09-01T22:50:00.301Z,2.70
2018-09-01T22:52:28.798Z,3.20
2018-09-01T22:54:57.085Z,3.10
2018-09-01T22:57:25.517Z,2.80
2018-09-01T22:59:53.810Z,3.07
2018-09-01T23:02:22.161Z,3.33
2018-09-01T23:04:50.494Z,3.50
2018-09-01T23:07:18.789Z,2.90
2018-09-01T23:09:47.104Z,3.20
2018-09-01T23:12:15.431Z,3.53
2018-09-01T23:14:43.781Z,3.50
2018-09-01T23:17:12.073Z,3.10
2018-09-01T23:19:40.410Z,3.20
2018-09-01T23:22:08.720Z,3.20
2018-09-01T23:24:37.002Z,3.40
2018-09-01T23:27:05.338Z,3.13
2018-09-01T23:29:33.624Z,3.47
2018-09-01T23:32:01.910Z,3.40
2018-09-01T23:34:30.206Z,3.40
2018-09-01T23:36:58.485Z,3.10
2018-09-01T23:39:26.770Z,3.30
2018-09-01T23:41:55.039Z,3.40
2018-09-01T23:44:23.313Z,3.40
2018-09-01T23:46:51.604Z,3.23
2018-09-01T23:49:19.877Z,3.13
2018-09-01T23:51:48.167Z,3.23
2018-09-01T23:54:16.446Z,3.60
2018-09-01T23:56:44.725Z,3.23
2018-09-01T23:59:12.989Z,3.57
